Time;durP1;ratioP1;P1;durP2;ratioP2;P2;SDS_P1;SDS_P2;PMS_P1;PMS_P2;Temp;Humidity;BMP_temperature;BMP_pressure;BME280_temperature;BME280_humidity;BME280_pressure;Samples;Min_cycle;Max_cycle;Signal;HPM_P1;HPM_P2
2022/03/24 00:00:08;;;;;;;75.93;44.88;;;;;;;;;;5020316;28;20623;-76
2022/03/24 00:02:34;;;;;;;69.63;42.53;;;;;;;;;;5020677;28;20048;-79
2022/03/24 00:05:02;;;;;;;70.60;42.90;;;;;;;;;;5021312;28;20066;-78
2022/03/24 00:07:28;;;;;;;71.70;43.00;;;;;;;;;;5019541;28;20057;-78
2022/03/24 00:09:56;;;;;;;69.00;43.60;;;;;;;;;;5016857;28;20064;-77
2022/03/24 00:12:22;;;;;;;71.93;43.33;;;;;;;;;;5018632;28;20034;-78
2022/03/24 00:14:50;;;;;;;77.40;45.28;;;;;;;;;;5000669;28;20040;-78
2022/03/24 00:17:16;;;;;;;68.53;41.22;;;;;;;;;;5001725;28;20243;-77
2022/03/24 00:19:41;;;;;;;74.43;44.50;;;;;;;;;;5019081;28;20037;-78
2022/03/24 00:22:07;;;;;;;68.10;42.78;;;;;;;;;;5018465;28;20080;-78
2022/03/24 00:24:32;;;;;;;70.35;43.88;;;;;;;;;;5002839;28;20506;-78
2022/03/24 00:26:58;;;;;;;67.32;42.35;;;;;;;;;;5019057;28;20033;-78
2022/03/24 00:29:26;;;;;;;71.03;42.90;;;;;;;;;;5001258;28;20107;-77
2022/03/24 00:31:53;;;;;;;77.50;44.20;;;;;;;;;;5020669;28;20553;-78
2022/03/24 00:34:19;;;;;;;70.35;43.63;;;;;;;;;;5014018;28;20041;-77
2022/03/24 00:36:44;;;;;;;66.63;42.25;;;;;;;;;;5020894;28;20155;-78
2022/03/24 00:39:12;;;;;;;67.03;41.35;;;;;;;;;;5021481;28;20094;-78
2022/03/24 00:41:40;;;;;;;64.72;41.15;;;;;;;;;;5001322;28;20053;-78
2022/03/24 00:44:07;;;;;;;68.55;41.00;;;;;;;;;;4986131;28;20288;-79
2022/03/24 00:46:32;;;;;;;69.05;43.28;;;;;;;;;;5019792;28;20481;-79
2022/03/24 00:48:58;;;;;;;71.38;42.13;;;;;;;;;;5018592;28;20038;-79
2022/03/24 00:51:24;;;;;;;69.97;41.22;;;;;;;;;;5020924;28;20223;-79
2022/03/24 00:53:50;;;;;;;66.93;41.10;;;;;;;;;;5018989;28;20547;-78
2022/03/24 00:56:15;;;;;;;75.75;41.35;;;;;;;;;;5000872;28;20528;-76
2022/03/24 00:58:43;;;;;;;69.00;40.90;;;;;;;;;;5020441;28;20108;-78
2022/03/24 01:01:12;;;;;;;70.05;41.80;;;;;;;;;;5018810;28;20022;-78
2022/03/24 01:03:41;;;;;;;73.38;42.72;;;;;;;;;;5019202;28;20040;-76
2022/03/24 01:06:07;;;;;;;70.00;41.03;;;;;;;;;;5000734;28;20395;-78
2022/03/24 01:08:34;;;;;;;66.85;40.72;;;;;;;;;;5000880;28;20151;-79
2022/03/24 01:11:05;;;;;;;72.45;41.28;;;;;;;;;;5007735;28;20044;-78
2022/03/24 01:13:34;;;;;;;68.50;41.28;;;;;;;;;;5018975;28;20033;-78
2022/03/24 01:16:03;;;;;;;72.30;41.53;;;;;;;;;;5019089;28;20055;-78
2022/03/24 01:18:34;;;;;;;73.95;42.50;;;;;;;;;;5018398;28;20029;-77
2022/03/24 01:21:02;;;;;;;74.63;43.50;;;;;;;;;;5020237;28;20021;-78
2022/03/24 01:23:28;;;;;;;73.63;42.70;;;;;;;;;;5017879;28;20026;-78
2022/03/24 01:25:57;;;;;;;75.50;43.50;;;;;;;;;;5021079;28;20055;-79
2022/03/24 01:28:23;;;;;;;68.63;42.13;;;;;;;;;;5019372;28;20323;-78
2022/03/24 01:30:51;;;;;;;78.57;42.85;;;;;;;;;;4990816;28;20040;-79
2022/03/24 01:33:16;;;;;;;75.97;42.17;;;;;;;;;;5017962;28;20026;-79
2022/03/24 01:35:44;;;;;;;73.93;44.28;;;;;;;;;;4999763;28;20029;-79
2022/03/24 01:38:10;;;;;;;72.03;43.22;;;;;;;;;;5020776;28;20129;-79
2022/03/24 01:40:36;;;;;;;78.43;44.53;;;;;;;;;;5019564;28;20491;-79
2022/03/24 01:43:01;;;;;;;72.18;43.20;;;;;;;;;;5016751;28;20032;-79
2022/03/24 01:45:30;;;;;;;68.78;41.70;;;;;;;;;;5000368;28;20072;-79
2022/03/24 01:47:55;;;;;;;69.05;42.63;;;;;;;;;;5002191;28;20029;-79
2022/03/24 01:50:20;;;;;;;79.28;44.58;;;;;;;;;;5019034;28;20621;-77
2022/03/24 01:52:46;;;;;;;69.72;41.28;;;;;;;;;;5019271;28;20132;-77
2022/03/24 01:55:13;;;;;;;82.63;45.97;;;;;;;;;;5018883;28;20086;-78
2022/03/24 01:57:42;;;;;;;71.45;43.42;;;;;;;;;;5016512;28;20025;-78
2022/03/24 02:00:08;;;;;;;74.07;43.40;;;;;;;;;;5002010;28;20444;-78
2022/03/24 02:02:34;;;;;;;79.10;46.10;;;;;;;;;;5019937;28;20039;-78
2022/03/24 02:05:00;;;;;;;77.90;44.58;;;;;;;;;;4999515;28;20033;-78
2022/03/24 02:07:26;;;;;;;75.15;43.92;;;;;;;;;;5018181;28;20132;-78
2022/03/24 02:09:54;;;;;;;74.25;44.03;;;;;;;;;;5018974;28;20056;-78
2022/03/24 02:12:19;;;;;;;76.47;43.55;;;;;;;;;;5019505;28;21168;-78
2022/03/24 02:14:47;;;;;;;75.07;44.53;;;;;;;;;;5019531;28;20037;-78
2022/03/24 02:17:12;;;;;;;75.35;43.75;;;;;;;;;;5003330;28;21534;-78
2022/03/24 02:19:45;;;;;;;72.55;44.72;;;;;;;;;;4983323;28;20363;-78
2022/03/24 02:22:16;;;;;;;76.63;44.75;;;;;;;;;;5004004;28;20094;-78
2022/03/24 02:24:43;;;;;;;74.35;43.63;;;;;;;;;;5016866;28;20029;-78
2022/03/24 02:27:10;;;;;;;76.72;45.20;;;;;;;;;;5018332;28;20041;-78
2022/03/24 02:29:36;;;;;;;76.47;44.28;;;;;;;;;;5016424;28;20055;-78
2022/03/24 02:32:08;;;;;;;73.32;44.60;;;;;;;;;;5000282;28;20789;-79
2022/03/24 02:34:40;;;;;;;78.97;45.25;;;;;;;;;;5017754;28;20055;-79
2022/03/24 02:37:14;;;;;;;77.32;44.65;;;;;;;;;;5019013;28;20058;-79
2022/03/24 02:39:41;;;;;;;76.43;44.50;;;;;;;;;;5017812;28;20029;-78
2022/03/24 02:42:13;;;;;;;81.38;46.17;;;;;;;;;;5017872;28;20078;-79
2022/03/24 02:44:38;;;;;;;79.00;47.10;;;;;;;;;;5007326;28;20846;-78
2022/03/24 02:47:05;;;;;;;79.97;45.20;;;;;;;;;;5021079;28;20042;-79
2022/03/24 02:49:31;;;;;;;83.32;45.92;;;;;;;;;;5003627;28;20037;-78
2022/03/24 02:51:59;;;;;;;83.40;46.70;;;;;;;;;;5021496;28;20025;-78
2022/03/24 02:54:27;;;;;;;78.95;45.90;;;;;;;;;;5001936;28;20033;-78
2022/03/24 02:56:58;;;;;;;82.53;47.03;;;;;;;;;;5003430;28;20128;-79
2022/03/24 02:59:26;;;;;;;85.88;48.83;;;;;;;;;;5019915;28;20058;-79
2022/03/24 03:01:59;;;;;;;84.90;48.60;;;;;;;;;;5022137;28;20687;-79
2022/03/24 03:04:28;;;;;;;81.68;45.95;;;;;;;;;;5022299;28;20055;-79
2022/03/24 03:06:59;;;;;;;76.38;45.17;;;;;;;;;;5021789;28;20061;-78
2022/03/24 03:09:24;;;;;;;81.78;44.72;;;;;;;;;;5003876;28;20021;-79
2022/03/24 03:11:52;;;;;;;85.70;45.97;;;;;;;;;;5003611;28;20062;-80
2022/03/24 03:14:20;;;;;;;81.05;45.58;;;;;;;;;;5021755;28;20085;-78
2022/03/24 03:16:48;;;;;;;82.28;45.17;;;;;;;;;;5008592;28;20018;-78
2022/03/24 03:19:19;;;;;;;79.13;44.58;;;;;;;;;;5009138;28;20279;-79
2022/03/24 03:21:45;;;;;;;84.05;45.00;;;;;;;;;;5020625;28;20024;-79
2022/03/24 03:24:11;;;;;;;77.05;43.47;;;;;;;;;;5001862;28;20033;-79
2022/03/24 03:26:39;;;;;;;75.43;43.65;;;;;;;;;;5001655;28;20043;-79
2022/03/24 03:29:06;;;;;;;81.80;44.35;;;;;;;;;;5020036;28;20098;-78
2022/03/24 03:31:32;;;;;;;78.25;44.97;;;;;;;;;;5021143;28;20622;-79
2022/03/24 03:33:58;;;;;;;80.90;46.03;;;;;;;;;;5019685;28;20029;-79
2022/03/24 03:36:26;;;;;;;85.88;47.58;;;;;;;;;;5001860;28;20519;-79
2022/03/24 03:38:52;;;;;;;76.35;45.97;;;;;;;;;;5019289;28;20021;-79
2022/03/24 03:41:21;;;;;;;82.43;46.10;;;;;;;;;;5021232;28;20159;-79
2022/03/24 03:43:51;;;;;;;82.30;46.42;;;;;;;;;;5002335;28;20099;-79
2022/03/24 03:46:19;;;;;;;84.75;46.97;;;;;;;;;;5021169;28;20437;-79
2022/03/24 03:48:47;;;;;;;78.78;44.95;;;;;;;;;;5022484;28;20024;-79
2022/03/24 03:51:15;;;;;;;88.65;48.28;;;;;;;;;;5022648;28;20417;-79
2022/03/24 03:53:41;;;;;;;84.18;47.58;;;;;;;;;;5002556;28;20127;-79
2022/03/24 03:56:07;;;;;;;83.50;49.05;;;;;;;;;;5002786;28;20017;-79
2022/03/24 03:58:35;;;;;;;84.68;47.42;;;;;;;;;;5003383;28;20331;-79
2022/03/24 04:01:03;;;;;;;87.97;48.47;;;;;;;;;;5010618;28;20029;-79
2022/03/24 04:03:30;;;;;;;83.93;48.28;;;;;;;;;;5022366;28;20021;-77
2022/03/24 04:05:56;;;;;;;89.35;49.17;;;;;;;;;;5021407;28;20054;-79
2022/03/24 04:08:24;;;;;;;85.38;48.20;;;;;;;;;;5003209;28;20116;-77
2022/03/24 04:10:50;;;;;;;88.13;49.08;;;;;;;;;;5009054;28;20420;-77
2022/03/24 04:13:16;;;;;;;93.82;51.03;;;;;;;;;;5022186;28;20052;-77
2022/03/24 04:15:45;;;;;;;86.18;48.58;;;;;;;;;;5009279;28;20035;-78
2022/03/24 04:18:13;;;;;;;82.80;48.60;;;;;;;;;;5023700;28;20036;-78
2022/03/24 04:20:43;;;;;;;83.85;47.50;;;;;;;;;;5012295;28;20033;-77
2022/03/24 04:23:09;;;;;;;87.07;47.15;;;;;;;;;;5009066;28;20021;-78
2022/03/24 04:25:39;;;;;;;82.85;45.40;;;;;;;;;;5025210;28;20040;-79
2022/03/24 04:28:07;;;;;;;81.18;44.00;;;;;;;;;;5023378;28;20047;-78
2022/03/24 04:30:34;;;;;;;79.68;44.92;;;;;;;;;;5022369;28;20037;-78
2022/03/24 04:33:00;;;;;;;77.85;43.28;;;;;;;;;;5023739;28;20164;-78
2022/03/24 04:35:26;;;;;;;77.85;43.42;;;;;;;;;;5022308;28;20064;-78
2022/03/24 04:37:51;;;;;;;77.30;43.60;;;;;;;;;;4988220;28;20043;-78
2022/03/24 04:40:17;;;;;;;76.38;42.70;;;;;;;;;;5021580;28;20044;-78
2022/03/24 04:42:43;;;;;;;82.72;44.08;;;;;;;;;;5025342;28;20044;-78
2022/03/24 04:45:09;;;;;;;69.97;40.53;;;;;;;;;;5007590;28;20077;-78
2022/03/24 04:47:37;;;;;;;82.50;42.92;;;;;;;;;;5009144;28;20107;-78
2022/03/24 04:50:03;;;;;;;76.47;43.72;;;;;;;;;;5007516;28;20127;-78
2022/03/24 04:52:29;;;;;;;77.78;42.58;;;;;;;;;;5011581;28;20445;-78
2022/03/24 04:54:54;;;;;;;86.97;48.83;;;;;;;;;;5022248;28;20063;-78
2022/03/24 04:57:20;;;;;;;84.75;48.10;;;;;;;;;;5020891;28;20037;-78
2022/03/24 04:59:46;;;;;;;81.15;46.42;;;;;;;;;;5022032;28;20103;-78
2022/03/24 05:02:15;;;;;;;82.30;49.58;;;;;;;;;;5023509;28;20094;-78
2022/03/24 05:04:43;;;;;;;93.90;51.25;;;;;;;;;;5023985;28;20057;-78
2022/03/24 05:07:24;;;;;;;86.53;50.03;;;;;;;;;;5025679;28;20130;-78
2022/03/24 05:09:53;;;;;;;93.47;50.30;;;;;;;;;;5005600;28;20047;-78
2022/03/24 05:12:25;;;;;;;89.82;50.42;;;;;;;;;;5003620;28;20768;-78
2022/03/24 05:14:50;;;;;;;100.47;55.83;;;;;;;;;;5020392;28;20071;-78
2022/03/24 05:17:16;;;;;;;101.30;57.08;;;;;;;;;;4976957;28;20026;-78
2022/03/24 05:19:48;;;;;;;96.38;53.97;;;;;;;;;;5008884;28;20025;-78
2022/03/24 05:22:16;;;;;;;100.53;56.38;;;;;;;;;;5020349;28;20086;-78
2022/03/24 05:24:42;;;;;;;101.28;55.67;;;;;;;;;;5021699;28;20025;-78
2022/03/24 05:27:10;;;;;;;100.57;58.03;;;;;;;;;;5022721;28;20037;-77
2022/03/24 05:29:37;;;;;;;103.40;57.28;;;;;;;;;;5025847;28;20090;-78
2022/03/24 05:32:03;;;;;;;107.70;58.00;;;;;;;;;;5019688;28;20078;-78
2022/03/24 05:34:28;;;;;;;96.10;56.67;;;;;;;;;;5002804;28;20167;-78
2022/03/24 05:36:54;;;;;;;99.03;57.17;;;;;;;;;;5006923;28;20086;-78
2022/03/24 05:39:21;;;;;;;106.72;59.70;;;;;;;;;;5020578;28;20649;-78
2022/03/24 05:41:46;;;;;;;106.22;59.67;;;;;;;;;;5020752;28;20033;-78
2022/03/24 05:44:12;;;;;;;106.65;58.45;;;;;;;;;;5022955;28;20031;-78
2022/03/24 05:46:40;;;;;;;111.63;62.85;;;;;;;;;;5023181;28;20106;-78
2022/03/24 05:49:08;;;;;;;117.22;65.68;;;;;;;;;;5007416;28;20524;-78
2022/03/24 05:51:36;;;;;;;128.43;69.68;;;;;;;;;;5019546;28;20567;-78
2022/03/24 05:54:04;;;;;;;129.50;71.68;;;;;;;;;;5000978;28;20175;-78
2022/03/24 05:56:30;;;;;;;127.88;71.88;;;;;;;;;;5021924;28;20027;-77
2022/03/24 05:58:56;;;;;;;130.55;73.63;;;;;;;;;;5001076;28;20391;-78
2022/03/24 06:01:23;;;;;;;132.57;73.22;;;;;;;;;;5018323;28;20593;-78
2022/03/24 06:03:52;;;;;;;127.05;74.05;;;;;;;;;;5008850;28;20025;-77
2022/03/24 06:06:18;;;;;;;127.40;72.28;;;;;;;;;;5018575;28;20501;-78
2022/03/24 06:08:43;;;;;;;122.75;71.53;;;;;;;;;;5019011;28;20223;-78
2022/03/24 06:11:15;;;;;;;129.35;71.72;;;;;;;;;;5017509;28;20648;-78
2022/03/24 06:13:40;;;;;;;131.07;75.03;;;;;;;;;;5000188;28;20127;-78
2022/03/24 06:16:06;;;;;;;117.32;69.70;;;;;;;;;;5019189;28;20074;-74
2022/03/24 06:18:32;;;;;;;122.13;71.05;;;;;;;;;;5019058;28;20445;-72
2022/03/24 06:21:00;;;;;;;116.28;71.10;;;;;;;;;;5019534;28;20029;-72
2022/03/24 06:23:26;;;;;;;126.57;74.03;;;;;;;;;;5008144;28;20059;-73
2022/03/24 06:25:51;;;;;;;123.70;72.32;;;;;;;;;;5024114;28;20107;-72
2022/03/24 06:28:16;;;;;;;118.32;72.50;;;;;;;;;;5003394;28;20551;-72
2022/03/24 06:30:42;;;;;;;122.18;72.63;;;;;;;;;;5003405;28;20454;-71
2022/03/24 06:33:10;;;;;;;117.25;69.47;;;;;;;;;;5022114;28;20036;-70
2022/03/24 06:35:35;;;;;;;116.00;70.88;;;;;;;;;;5001439;28;20032;-71
2022/03/24 06:38:03;;;;;;;118.03;69.57;;;;;;;;;;5021011;28;20098;-71
2022/03/24 06:40:30;;;;;;;119.47;69.95;;;;;;;;;;5019530;28;20042;-71
2022/03/24 06:42:56;;;;;;;114.10;70.47;;;;;;;;;;5020518;28;20041;-70
2022/03/24 06:45:21;;;;;;;125.32;71.78;;;;;;;;;;5003484;28;20041;-71
2022/03/24 06:47:46;;;;;;;116.40;70.38;;;;;;;;;;5020323;28;20034;-71
2022/03/24 06:50:13;;;;;;;113.07;69.47;;;;;;;;;;4970230;28;20064;-71
2022/03/24 06:52:38;;;;;;;108.95;68.15;;;;;;;;;;5020338;28;20701;-71
2022/03/24 06:55:06;;;;;;;107.65;66.82;;;;;;;;;;5020923;28;20029;-71
2022/03/24 06:57:32;;;;;;;109.97;68.82;;;;;;;;;;5003338;28;21959;-71
2022/03/24 06:59:57;;;;;;;110.07;68.18;;;;;;;;;;5021356;28;20114;-71
2022/03/24 07:02:27;;;;;;;102.00;65.20;;;;;;;;;;5020692;28;20577;-71
2022/03/24 07:04:53;;;;;;;102.28;65.30;;;;;;;;;;5020234;28;20756;-71
2022/03/24 07:07:19;;;;;;;101.43;63.85;;;;;;;;;;5020271;28;20104;-70
2022/03/24 07:09:46;;;;;;;99.07;64.18;;;;;;;;;;5022128;28;20597;-70
2022/03/24 07:12:14;;;;;;;91.25;61.70;;;;;;;;;;5019231;28;20320;-70
2022/03/24 07:14:41;;;;;;;84.90;58.75;;;;;;;;;;5021563;28;20041;-70
2022/03/24 07:17:07;;;;;;;84.57;58.17;;;;;;;;;;5002989;28;20051;-72
2022/03/24 07:19:33;;;;;;;80.20;55.20;;;;;;;;;;5022212;28;20048;-70
2022/03/24 07:21:58;;;;;;;78.60;56.45;;;;;;;;;;5018217;28;20029;-70
2022/03/24 07:24:23;;;;;;;75.90;55.17;;;;;;;;;;5001987;28;20072;-70
2022/03/24 07:26:51;;;;;;;73.35;52.88;;;;;;;;;;5019294;28;20302;-70
2022/03/24 07:29:16;;;;;;;75.55;54.47;;;;;;;;;;5021259;28;20033;-70
2022/03/24 07:31:42;;;;;;;77.55;54.25;;;;;;;;;;5018446;28;20162;-70
2022/03/24 07:34:09;;;;;;;69.65;53.08;;;;;;;;;;5022809;28;20688;-70
2022/03/24 07:36:35;;;;;;;72.18;53.40;;;;;;;;;;5020567;28;20396;-70
2022/03/24 07:39:01;;;;;;;69.95;52.75;;;;;;;;;;5019223;28;20103;-70
2022/03/24 07:41:27;;;;;;;70.65;53.15;;;;;;;;;;5020640;28;20597;-70
2022/03/24 07:43:57;;;;;;;71.20;52.97;;;;;;;;;;5018262;28;21998;-70
2022/03/24 07:46:22;;;;;;;71.60;52.22;;;;;;;;;;5020438;28;20794;-70
2022/03/24 07:48:49;;;;;;;68.97;52.22;;;;;;;;;;5020551;28;20045;-70
2022/03/24 07:51:15;;;;;;;74.57;52.05;;;;;;;;;;5020030;28;20031;-70
2022/03/24 07:53:47;;;;;;;68.22;52.75;;;;;;;;;;5020324;28;20499;-70
2022/03/24 07:56:12;;;;;;;61.42;48.95;;;;;;;;;;5020751;28;22280;-70
2022/03/24 07:58:39;;;;;;;58.90;46.13;;;;;;;;;;5002536;28;20039;-69
2022/03/24 08:01:04;;;;;;;59.83;45.83;;;;;;;;;;5001466;28;20055;-70
2022/03/24 08:03:29;;;;;;;66.78;49.55;;;;;;;;;;5019643;28;22107;-70
2022/03/24 08:05:56;;;;;;;67.45;51.50;;;;;;;;;;5020063;28;20107;-72
2022/03/24 08:08:24;;;;;;;64.82;47.33;;;;;;;;;;5021092;28;20502;-72
2022/03/24 08:10:50;;;;;;;64.13;47.75;;;;;;;;;;5019132;28;20041;-71
2022/03/24 08:13:19;;;;;;;64.13;47.17;;;;;;;;;;5018776;28;20135;-73
2022/03/24 08:15:46;;;;;;;64.22;46.88;;;;;;;;;;5018367;28;20041;-71
2022/03/24 08:18:12;;;;;;;55.90;44.28;;;;;;;;;;5016518;28;20130;-69
2022/03/24 08:20:38;;;;;;;62.75;47.95;;;;;;;;;;5004379;28;20029;-69
2022/03/24 08:23:04;;;;;;;56.97;46.00;;;;;;;;;;5016394;28;20536;-69
2022/03/24 08:25:30;;;;;;;58.08;44.03;;;;;;;;;;5000014;28;20079;-69
2022/03/24 08:27:56;;;;;;;60.25;43.47;;;;;;;;;;5017533;28;20093;-69
2022/03/24 08:30:21;;;;;;;57.45;44.10;;;;;;;;;;5018182;28;20032;-69
2022/03/24 08:32:47;;;;;;;51.05;39.90;;;;;;;;;;5017627;28;20029;-69
2022/03/24 08:35:14;;;;;;;55.42;40.40;;;;;;;;;;5017833;28;20056;-70
2022/03/24 08:37:39;;;;;;;49.22;39.92;;;;;;;;;;5000506;28;20364;-69
2022/03/24 08:40:05;;;;;;;53.05;39.00;;;;;;;;;;5014460;28;20511;-69
2022/03/24 08:42:42;;;;;;;49.80;38.15;;;;;;;;;;5003697;28;20124;-67
2022/03/24 08:45:09;;;;;;;54.78;39.45;;;;;;;;;;4999450;28;20025;-67
2022/03/24 08:47:35;;;;;;;57.40;45.67;;;;;;;;;;5018586;28;20055;-67
2022/03/24 08:50:01;;;;;;;62.35;45.50;;;;;;;;;;5000372;28;20634;-67
2022/03/24 08:52:27;;;;;;;50.75;42.63;;;;;;;;;;5019802;28;20649;-72
2022/03/24 08:54:53;;;;;;;47.97;40.78;;;;;;;;;;4999602;28;20052;-69
2022/03/24 08:57:26;;;;;;;55.30;43.05;;;;;;;;;;5016473;28;20602;-69
2022/03/24 08:59:55;;;;;;;51.63;39.42;;;;;;;;;;5000785;28;20034;-69
2022/03/24 09:02:21;;;;;;;45.15;36.10;;;;;;;;;;4998673;28;20064;-68
2022/03/24 09:04:48;;;;;;;47.45;38.63;;;;;;;;;;5000006;28;20044;-70
2022/03/24 09:07:21;;;;;;;52.90;43.33;;;;;;;;;;5002996;28;20049;-69
2022/03/24 09:09:49;;;;;;;53.75;42.75;;;;;;;;;;5002205;28;20707;-70
2022/03/24 09:12:15;;;;;;;52.97;44.38;;;;;;;;;;5016784;28;20432;-69
2022/03/24 09:14:40;;;;;;;57.80;45.28;;;;;;;;;;5017348;28;20261;-69
2022/03/24 09:17:06;;;;;;;55.30;44.90;;;;;;;;;;5019678;28;20153;-70
2022/03/24 09:19:33;;;;;;;50.75;40.97;;;;;;;;;;5016911;28;20029;-70
2022/03/24 09:21:59;;;;;;;52.40;39.70;;;;;;;;;;5020215;28;20694;-70
2022/03/24 09:24:25;;;;;;;48.80;39.10;;;;;;;;;;5017947;28;20349;-70
2022/03/24 09:26:50;;;;;;;61.03;44.55;;;;;;;;;;5001095;28;20557;-71
2022/03/24 09:29:18;;;;;;;55.55;42.72;;;;;;;;;;4985071;28;20039;-70
2022/03/24 09:31:47;;;;;;;51.88;39.38;;;;;;;;;;5018133;28;20025;-70
2022/03/24 09:34:13;;;;;;;61.45;46.70;;;;;;;;;;5000829;28;21510;-70
2022/03/24 09:36:39;;;;;;;66.70;47.17;;;;;;;;;;5019057;28;20033;-69
2022/03/24 09:39:08;;;;;;;56.20;41.58;;;;;;;;;;5000766;28;20131;-70
2022/03/24 09:41:35;;;;;;;50.10;38.38;;;;;;;;;;5017148;28;20105;-70
2022/03/24 09:44:00;;;;;;;46.53;35.85;;;;;;;;;;5017638;28;20046;-70
2022/03/24 09:46:26;;;;;;;47.17;34.67;;;;;;;;;;4988530;28;20488;-70
2022/03/24 09:48:52;;;;;;;60.55;45.58;;;;;;;;;;5017843;28;20168;-69
2022/03/24 09:51:17;;;;;;;59.40;45.88;;;;;;;;;;4999129;28;20039;-70
2022/03/24 09:53:43;;;;;;;56.28;43.35;;;;;;;;;;5017277;28;20037;-68
2022/03/24 09:56:11;;;;;;;54.53;41.42;;;;;;;;;;5019240;28;20476;-70
2022/03/24 09:58:36;;;;;;;58.40;41.60;;;;;;;;;;5020175;28;20203;-69
2022/03/24 10:01:02;;;;;;;53.50;41.08;;;;;;;;;;5021919;28;20029;-68
2022/03/24 10:03:28;;;;;;;53.58;40.45;;;;;;;;;;5023826;28;20047;-68
2022/03/24 10:05:58;;;;;;;52.03;38.95;;;;;;;;;;5023625;28;20391;-70
2022/03/24 10:08:25;;;;;;;50.67;40.28;;;;;;;;;;5021381;28;20044;-71
2022/03/24 10:10:50;;;;;;;58.45;43.30;;;;;;;;;;5022525;28;20465;-70
2022/03/24 10:13:25;;;;;;;55.70;42.25;;;;;;;;;;5021241;28;20093;-69
2022/03/24 10:15:51;;;;;;;55.40;41.33;;;;;;;;;;5004988;28;20085;-69
2022/03/24 10:18:17;;;;;;;52.42;41.33;;;;;;;;;;5004307;28;20041;-69
2022/03/24 10:20:45;;;;;;;57.78;46.10;;;;;;;;;;5021326;28;20025;-68
2022/03/24 10:23:11;;;;;;;62.25;47.60;;;;;;;;;;5013426;28;20341;-69
2022/03/24 10:25:40;;;;;;;57.63;45.00;;;;;;;;;;5021101;28;20189;-70
2022/03/24 10:28:08;;;;;;;;;;;;;;;;;;5020921;28;20063;-72
2022/03/24 10:30:50;;;;;;;57.28;45.35;;;;;;;;;;5019507;28;19917;-71
2022/03/24 10:33:15;;;;;;;;;;;;;;;;;;5004852;28;20341;-73
2022/03/24 10:35:41;;;;;;;55.88;41.10;;;;;;;;;;5020416;28;19917;-72
2022/03/24 10:38:06;;;;;;;60.10;45.08;;;;;;;;;;5023114;28;20033;-70
2022/03/24 10:40:35;;;;;;;57.70;41.28;;;;;;;;;;5021451;28;20025;-70
2022/03/24 10:43:01;;;;;;;55.25;41.65;;;;;;;;;;5022467;28;20357;-70
2022/03/24 10:45:26;;;;;;;55.38;41.97;;;;;;;;;;5022010;28;20028;-70
2022/03/24 10:47:52;;;;;;;55.90;38.75;;;;;;;;;;5021985;28;20570;-71
2022/03/24 10:50:28;;;;;;;55.78;37.20;;;;;;;;;;5021252;28;20112;-71
2022/03/24 10:53:03;;;;;;;56.90;38.67;;;;;;;;;;5019307;28;20029;-71
2022/03/24 10:55:34;;;;;;;49.42;37.45;;;;;;;;;;4987899;28;20032;-70
2022/03/24 10:58:02;;;;;;;48.80;36.95;;;;;;;;;;5021185;28;20098;-71
2022/03/24 11:00:27;;;;;;;50.88;36.17;;;;;;;;;;5022945;28;20437;-71
2022/03/24 11:02:54;;;;;;;45.72;37.38;;;;;;;;;;5019982;28;20033;-71
2022/03/24 11:05:19;;;;;;;50.22;38.72;;;;;;;;;;5021224;28;20572;-71
2022/03/24 11:07:52;;;;;;;49.05;36.53;;;;;;;;;;5002266;28;20208;-71
2022/03/24 11:10:19;;;;;;;47.78;35.08;;;;;;;;;;5022674;28;20034;-71
2022/03/24 11:12:48;;;;;;;46.63;35.13;;;;;;;;;;5021680;28;20526;-72
2022/03/24 11:15:16;;;;;;;43.38;32.63;;;;;;;;;;5019728;28;20037;-72
2022/03/24 11:17:45;;;;;;;41.47;33.40;;;;;;;;;;4991963;28;20029;-73
2022/03/24 11:20:14;;;;;;;48.30;38.25;;;;;;;;;;5019759;28;20025;-73
2022/03/24 11:22:54;;;;;;;48.97;35.83;;;;;;;;;;5019822;28;20033;-70
2022/03/24 11:25:20;;;;;;;53.15;36.67;;;;;;;;;;5003536;28;20032;-69
2022/03/24 11:27:46;;;;;;;48.65;34.80;;;;;;;;;;5021490;28;20040;-72
2022/03/24 11:30:13;;;;;;;45.25;34.17;;;;;;;;;;5021364;28;20125;-72
2022/03/24 11:32:40;;;;;;;42.45;31.50;;;;;;;;;;5021819;28;20037;-72
2022/03/24 11:35:11;;;;;;;48.70;37.03;;;;;;;;;;5020511;28;20037;-70
2022/03/24 11:37:38;;;;;;;51.55;37.63;;;;;;;;;;5008147;28;20021;-73
2022/03/24 11:40:08;;;;;;;48.72;35.97;;;;;;;;;;5022548;28;20029;-72
2022/03/24 11:42:36;;;;;;;52.00;36.50;;;;;;;;;;5020753;28;20523;-72
2022/03/24 11:45:08;;;;;;;50.83;37.33;;;;;;;;;;5022898;28;20711;-72
2022/03/24 11:47:48;;;;;;;52.70;40.30;;;;;;;;;;5022043;28;20041;-73
2022/03/24 11:50:17;;;;;;;60.88;43.22;;;;;;;;;;5023321;28;20045;-71
2022/03/24 11:52:44;;;;;;;61.08;43.42;;;;;;;;;;5019037;28;20033;-72
2022/03/24 11:55:13;;;;;;;64.88;45.80;;;;;;;;;;5020605;28;20033;-70
2022/03/24 11:57:42;;;;;;;62.70;47.08;;;;;;;;;;5019104;28;20029;-70
2022/03/24 12:00:12;;;;;;;66.05;47.35;;;;;;;;;;5019909;28;20137;-69
2022/03/24 12:02:38;;;;;;;64.93;48.20;;;;;;;;;;5018194;28;20025;-70
2022/03/24 12:05:03;;;;;;;67.72;48.95;;;;;;;;;;5018471;28;20091;-70
2022/03/24 12:07:29;;;;;;;67.50;50.50;;;;;;;;;;5001429;28;20056;-69
2022/03/24 12:09:57;;;;;;;72.63;53.97;;;;;;;;;;5020090;28;20045;-69
2022/03/24 12:12:25;;;;;;;71.22;51.60;;;;;;;;;;5018183;28;20123;-69
2022/03/24 12:14:54;;;;;;;76.55;53.00;;;;;;;;;;5001480;28;20041;-69
2022/03/24 12:17:31;;;;;;;72.82;52.60;;;;;;;;;;5001195;28;20159;-69
2022/03/24 12:20:00;;;;;;;76.32;56.83;;;;;;;;;;5003485;28;20120;-71
2022/03/24 12:22:26;;;;;;;80.50;59.42;;;;;;;;;;5002868;28;20292;-71
2022/03/24 12:25:11;;;;;;;82.25;59.33;;;;;;;;;;5018317;28;20025;-70
2022/03/24 12:27:55;;;;;;;80.63;58.78;;;;;;;;;;5018969;28;20711;-70
2022/03/24 12:30:21;;;;;;;84.43;59.50;;;;;;;;;;5020085;28;20036;-70
2022/03/24 12:33:05;;;;;;;85.85;61.80;;;;;;;;;;5018062;28;20059;-70
2022/03/24 12:35:49;;;;;;;91.20;64.85;;;;;;;;;;5018438;28;20091;-70
2022/03/24 12:38:43;;;;;;;90.63;61.50;;;;;;;;;;5018701;28;20543;-70
2022/03/24 12:41:11;;;;;;;85.78;59.67;;;;;;;;;;5019481;28;20274;-68
2022/03/24 12:43:40;;;;;;;84.55;60.03;;;;;;;;;;5015631;28;20032;-69
2022/03/24 12:46:25;;;;;;;84.75;59.60;;;;;;;;;;5018874;28;20497;-69
2022/03/24 12:48:55;;;;;;;88.15;62.17;;;;;;;;;;5018281;28;20417;-68
2022/03/24 12:51:25;;;;;;;91.32;63.10;;;;;;;;;;5000355;28;20036;-69
2022/03/24 12:53:51;;;;;;;88.32;63.67;;;;;;;;;;5020658;28;20707;-69
2022/03/24 12:56:22;;;;;;;87.05;62.03;;;;;;;;;;5019541;28;20020;-68
2022/03/24 12:58:51;;;;;;;82.82;59.05;;;;;;;;;;5019119;28;20044;-68
2022/03/24 13:01:16;;;;;;;86.45;58.38;;;;;;;;;;4984615;28;20025;-69
2022/03/24 13:03:52;;;;;;;77.18;55.85;;;;;;;;;;5017037;28;20040;-69
2022/03/24 13:06:23;;;;;;;86.50;59.28;;;;;;;;;;5018939;28;20127;-69
2022/03/24 13:09:16;;;;;;;84.35;59.83;;;;;;;;;;5003063;28;20032;-69
2022/03/24 13:12:02;;;;;;;83.80;61.75;;;;;;;;;;5007845;28;20115;-69
2022/03/24 13:14:30;;;;;;;90.18;62.05;;;;;;;;;;5000433;28;20048;-74
2022/03/24 13:17:10;;;;;;;95.97;66.68;;;;;;;;;;5018313;28;20091;-72
2022/03/24 13:19:36;;;;;;;93.90;65.20;;;;;;;;;;5020458;28;20032;-72
2022/03/24 13:22:15;;;;;;;92.65;65.13;;;;;;;;;;5018832;28;20056;-72
2022/03/24 13:24:41;;;;;;;94.15;66.47;;;;;;;;;;5018171;28;20025;-71
2022/03/24 13:27:09;;;;;;;96.60;66.55;;;;;;;;;;5001037;28;20121;-71
2022/03/24 13:29:44;;;;;;;92.63;63.67;;;;;;;;;;5018225;28;20760;-71
2022/03/24 13:32:13;;;;;;;94.97;64.57;;;;;;;;;;5000264;28;20459;-71
2022/03/24 13:34:45;;;;;;;92.32;63.25;;;;;;;;;;5016349;28;20044;-71
2022/03/24 13:37:15;;;;;;;89.45;62.55;;;;;;;;;;5008626;28;20029;-71
2022/03/24 13:39:47;;;;;;;88.90;60.35;;;;;;;;;;5017469;28;20067;-71
2022/03/24 13:42:13;;;;;;;94.25;65.00;;;;;;;;;;5017411;28;20072;-72
2022/03/24 13:44:38;;;;;;;95.82;66.05;;;;;;;;;;5016795;28;22304;-71
2022/03/24 13:47:04;;;;;;;89.95;61.00;;;;;;;;;;4989044;28;20033;-71
2022/03/24 13:49:31;;;;;;;86.95;61.00;;;;;;;;;;5016594;28;20029;-71
2022/03/24 13:51:56;;;;;;;87.60;61.22;;;;;;;;;;4972809;28;20052;-71
2022/03/24 13:54:22;;;;;;;83.95;59.30;;;;;;;;;;5000000;28;20043;-71
2022/03/24 13:56:52;;;;;;;88.32;59.05;;;;;;;;;;5001970;28;20526;-71
2022/03/24 13:59:24;;;;;;;84.30;58.22;;;;;;;;;;5018925;28;20192;-71
2022/03/24 14:01:56;;;;;;;88.45;59.03;;;;;;;;;;5004889;28;20609;-71
2022/03/24 14:04:24;;;;;;;87.88;58.95;;;;;;;;;;5018579;28;20029;-70
2022/03/24 14:07:22;;;;;;;87.05;58.97;;;;;;;;;;5017515;28;20045;-71
2022/03/24 14:09:53;;;;;;;85.38;57.40;;;;;;;;;;4966115;28;20045;-70
2022/03/24 14:12:19;;;;;;;84.53;56.60;;;;;;;;;;5017911;28;20136;-72
2022/03/24 14:14:45;;;;;;;82.45;55.83;;;;;;;;;;4998345;28;20118;-73
2022/03/24 14:17:13;;;;;;;76.60;54.00;;;;;;;;;;4999363;28;20046;-72
2022/03/24 14:20:01;;;;;;;75.97;55.55;;;;;;;;;;5017252;28;20029;-72